Wellington, South Dakota
Current Conditions -  °F | °C
As of 8:56 PM on Saturday 22 Nov 2014 (Local Time) from KFSD Reporting Station
Overcast Overcast  
Wind Chill: 33°   Ceiling: 22000
Heat Index: 41°   Visibility: 10mi
Dew Point: 37°   Wind: 14mph
Humidity: 86%   Direction: 200°SSW
Pressure: 29.46"   Gusts: NA
Location:  43.587°N, 97.0695°W
Report Text: KFSD 230256Z 20012KT 10SM SCT150 OVC220 05/03 A2946 RMK AO2 SLP989 T00500028 56006
Loading
Personal Weather Stations






























Interactive Weather Map New forecast layout! Learn more

10-Day Weather Forecast

Advertisements
Track Severe Weather on mobile